sensor_id;sensor_type;location;lat;lon;timestamp;P1;durP1;ratioP1;P2;durP2;ratioP2
21352;SDS011;10834;52.268;6.770;2023-05-10T00:02:15;6.47;;;5.33;;
21352;SDS011;10834;52.268;6.770;2023-05-10T00:05:01;5.80;;;4.80;;
21352;SDS011;10834;52.268;6.770;2023-05-10T00:07:47;6.97;;;5.20;;
21352;SDS011;10834;52.268;6.770;2023-05-10T00:10:33;7.33;;;5.27;;
21352;SDS011;10834;52.268;6.770;2023-05-10T00:13:19;8.77;;;6.00;;
21352;SDS011;10834;52.268;6.770;2023-05-10T00:16:06;6.90;;;5.70;;
21352;SDS011;10834;52.268;6.770;2023-05-10T00:18:52;6.50;;;5.47;;
21352;SDS011;10834;52.268;6.770;2023-05-10T00:21:38;9.73;;;4.97;;
21352;SDS011;10834;52.268;6.770;2023-05-10T00:24:24;7.83;;;5.63;;
21352;SDS011;10834;52.268;6.770;2023-05-10T00:27:10;8.83;;;6.47;;
21352;SDS011;10834;52.268;6.770;2023-05-10T00:29:56;10.13;;;6.40;;
21352;SDS011;10834;52.268;6.770;2023-05-10T00:32:42;8.57;;;6.30;;
21352;SDS011;10834;52.268;6.770;2023-05-10T00:35:28;9.27;;;6.07;;
21352;SDS011;10834;52.268;6.770;2023-05-10T00:38:14;8.90;;;5.80;;
21352;SDS011;10834;52.268;6.770;2023-05-10T00:41:01;6.67;;;5.97;;
21352;SDS011;10834;52.268;6.770;2023-05-10T00:43:47;10.90;;;6.23;;
21352;SDS011;10834;52.268;6.770;2023-05-10T00:46:33;8.30;;;5.83;;
21352;SDS011;10834;52.268;6.770;2023-05-10T00:49:20;8.63;;;5.97;;
21352;SDS011;10834;52.268;6.770;2023-05-10T00:52:06;8.60;;;6.93;;
21352;SDS011;10834;52.268;6.770;2023-05-10T00:54:53;7.73;;;6.17;;
21352;SDS011;10834;52.268;6.770;2023-05-10T00:57:41;8.20;;;6.67;;
21352;SDS011;10834;52.268;6.770;2023-05-10T01:00:27;7.50;;;6.17;;
21352;SDS011;10834;52.268;6.770;2023-05-10T01:03:14;6.73;;;5.73;;
21352;SDS011;10834;52.268;6.770;2023-05-10T01:06:00;7.60;;;6.67;;
21352;SDS011;10834;52.268;6.770;2023-05-10T01:08:47;8.20;;;6.77;;
21352;SDS011;10834;52.268;6.770;2023-05-10T01:11:34;8.07;;;6.90;;
21352;SDS011;10834;52.268;6.770;2023-05-10T01:14:22;7.30;;;6.30;;
21352;SDS011;10834;52.268;6.770;2023-05-10T01:17:08;9.03;;;6.50;;
21352;SDS011;10834;52.268;6.770;2023-05-10T01:19:56;8.80;;;6.57;;
21352;SDS011;10834;52.268;6.770;2023-05-10T01:23:01;8.90;;;6.37;;
21352;SDS011;10834;52.268;6.770;2023-05-10T01:26:01;8.60;;;6.73;;
21352;SDS011;10834;52.268;6.770;2023-05-10T01:29:13;10.37;;;7.07;;
21352;SDS011;10834;52.268;6.770;2023-05-10T01:35:45;9.63;;;8.63;;
21352;SDS011;10834;52.268;6.770;2023-05-10T01:38:53;11.20;;;8.47;;
21352;SDS011;10834;52.268;6.770;2023-05-10T01:45:24;23.60;;;11.00;;
21352;SDS011;10834;52.268;6.770;2023-05-10T01:48:16;11.23;;;8.57;;
21352;SDS011;10834;52.268;6.770;2023-05-10T01:51:04;14.57;;;9.17;;
21352;SDS011;10834;52.268;6.770;2023-05-10T01:53:54;11.07;;;9.07;;
21352;SDS011;10834;52.268;6.770;2023-05-10T01:56:47;11.47;;;8.67;;
21352;SDS011;10834;52.268;6.770;2023-05-10T02:05:46;12.37;;;8.67;;
21352;SDS011;10834;52.268;6.770;2023-05-10T02:08:34;14.27;;;9.50;;
21352;SDS011;10834;52.268;6.770;2023-05-10T02:11:22;13.27;;;9.87;;
21352;SDS011;10834;52.268;6.770;2023-05-10T02:14:10;12.87;;;9.80;;
21352;SDS011;10834;52.268;6.770;2023-05-10T02:16:58;11.93;;;9.47;;
21352;SDS011;10834;52.268;6.770;2023-05-10T02:19:45;14.20;;;9.17;;
21352;SDS011;10834;52.268;6.770;2023-05-10T02:22:33;16.67;;;10.37;;
21352;SDS011;10834;52.268;6.770;2023-05-10T02:25:21;12.10;;;8.77;;
21352;SDS011;10834;52.268;6.770;2023-05-10T02:28:08;13.40;;;10.50;;
21352;SDS011;10834;52.268;6.770;2023-05-10T02:30:57;15.00;;;10.27;;
21352;SDS011;10834;52.268;6.770;2023-05-10T02:33:43;18.80;;;10.70;;
21352;SDS011;10834;52.268;6.770;2023-05-10T02:36:31;13.57;;;9.93;;
21352;SDS011;10834;52.268;6.770;2023-05-10T02:39:18;17.53;;;10.57;;
21352;SDS011;10834;52.268;6.770;2023-05-10T02:42:06;12.83;;;9.77;;
21352;SDS011;10834;52.268;6.770;2023-05-10T02:44:53;15.27;;;9.70;;
21352;SDS011;10834;52.268;6.770;2023-05-10T02:47:47;14.57;;;10.43;;
21352;SDS011;10834;52.268;6.770;2023-05-10T02:50:33;15.97;;;10.40;;
21352;SDS011;10834;52.268;6.770;2023-05-10T02:53:23;15.53;;;11.13;;
21352;SDS011;10834;52.268;6.770;2023-05-10T02:56:20;15.47;;;10.10;;
21352;SDS011;10834;52.268;6.770;2023-05-10T02:59:11;14.83;;;11.27;;
21352;SDS011;10834;52.268;6.770;2023-05-10T03:01:57;16.67;;;9.80;;
21352;SDS011;10834;52.268;6.770;2023-05-10T03:04:43;14.53;;;9.97;;
21352;SDS011;10834;52.268;6.770;2023-05-10T03:07:30;16.00;;;11.63;;
21352;SDS011;10834;52.268;6.770;2023-05-10T03:10:16;16.03;;;10.73;;
21352;SDS011;10834;52.268;6.770;2023-05-10T03:13:13;17.93;;;12.17;;
21352;SDS011;10834;52.268;6.770;2023-05-10T03:16:08;18.87;;;11.20;;
21352;SDS011;10834;52.268;6.770;2023-05-10T03:22:11;18.17;;;12.30;;
21352;SDS011;10834;52.268;6.770;2023-05-10T03:25:02;18.40;;;12.20;;
21352;SDS011;10834;52.268;6.770;2023-05-10T03:27:51;18.73;;;12.30;;
21352;SDS011;10834;52.268;6.770;2023-05-10T03:30:38;24.90;;;13.23;;
21352;SDS011;10834;52.268;6.770;2023-05-10T03:33:26;21.07;;;13.20;;
21352;SDS011;10834;52.268;6.770;2023-05-10T03:36:12;24.23;;;13.10;;
21352;SDS011;10834;52.268;6.770;2023-05-10T03:38:58;26.53;;;14.63;;
21352;SDS011;10834;52.268;6.770;2023-05-10T03:41:44;28.53;;;15.63;;
21352;SDS011;10834;52.268;6.770;2023-05-10T03:44:30;29.07;;;16.00;;
21352;SDS011;10834;52.268;6.770;2023-05-10T03:47:18;27.70;;;16.20;;
21352;SDS011;10834;52.268;6.770;2023-05-10T03:50:04;30.83;;;17.87;;
21352;SDS011;10834;52.268;6.770;2023-05-10T03:52:51;26.40;;;16.07;;
21352;SDS011;10834;52.268;6.770;2023-05-10T03:55:37;31.67;;;16.67;;
21352;SDS011;10834;52.268;6.770;2023-05-10T03:58:23;33.87;;;16.60;;
21352;SDS011;10834;52.268;6.770;2023-05-10T04:01:09;37.27;;;18.13;;
21352;SDS011;10834;52.268;6.770;2023-05-10T04:03:55;32.47;;;18.03;;
21352;SDS011;10834;52.268;6.770;2023-05-10T04:06:41;32.37;;;17.73;;
21352;SDS011;10834;52.268;6.770;2023-05-10T04:09:28;35.17;;;18.97;;
21352;SDS011;10834;52.268;6.770;2023-05-10T04:12:14;34.87;;;18.97;;
21352;SDS011;10834;52.268;6.770;2023-05-10T04:14:59;42.27;;;20.70;;
21352;SDS011;10834;52.268;6.770;2023-05-10T04:17:46;42.00;;;21.93;;
21352;SDS011;10834;52.268;6.770;2023-05-10T04:20:32;35.37;;;17.97;;
21352;SDS011;10834;52.268;6.770;2023-05-10T04:23:18;42.90;;;18.50;;
21352;SDS011;10834;52.268;6.770;2023-05-10T04:26:04;39.47;;;21.17;;
21352;SDS011;10834;52.268;6.770;2023-05-10T04:28:50;41.37;;;19.47;;
21352;SDS011;10834;52.268;6.770;2023-05-10T04:31:36;47.50;;;21.83;;
21352;SDS011;10834;52.268;6.770;2023-05-10T04:34:22;39.67;;;20.67;;
21352;SDS011;10834;52.268;6.770;2023-05-10T04:37:09;42.47;;;21.27;;
21352;SDS011;10834;52.268;6.770;2023-05-10T04:39:55;44.47;;;20.53;;
21352;SDS011;10834;52.268;6.770;2023-05-10T04:42:41;43.40;;;22.40;;
21352;SDS011;10834;52.268;6.770;2023-05-10T04:45:26;52.30;;;24.50;;
21352;SDS011;10834;52.268;6.770;2023-05-10T04:48:12;45.63;;;21.47;;
21352;SDS011;10834;52.268;6.770;2023-05-10T04:50:58;51.93;;;23.57;;
21352;SDS011;10834;52.268;6.770;2023-05-10T04:53:45;57.27;;;25.13;;
21352;SDS011;10834;52.268;6.770;2023-05-10T05:00:28;52.13;;;23.07;;
21352;SDS011;10834;52.268;6.770;2023-05-10T05:03:14;59.40;;;25.37;;
21352;SDS011;10834;52.268;6.770;2023-05-10T05:06:00;58.80;;;24.60;;
21352;SDS011;10834;52.268;6.770;2023-05-10T05:08:46;59.67;;;26.23;;
21352;SDS011;10834;52.268;6.770;2023-05-10T05:11:34;56.60;;;24.73;;
21352;SDS011;10834;52.268;6.770;2023-05-10T05:14:20;60.43;;;26.63;;
21352;SDS011;10834;52.268;6.770;2023-05-10T05:17:06;68.23;;;26.40;;
21352;SDS011;10834;52.268;6.770;2023-05-10T05:19:53;70.33;;;27.90;;
21352;SDS011;10834;52.268;6.770;2023-05-10T05:22:39;74.43;;;31.87;;
21352;SDS011;10834;52.268;6.770;2023-05-10T05:25:25;67.50;;;29.80;;
21352;SDS011;10834;52.268;6.770;2023-05-10T05:28:11;65.37;;;29.47;;
21352;SDS011;10834;52.268;6.770;2023-05-10T05:30:57;68.17;;;28.77;;
21352;SDS011;10834;52.268;6.770;2023-05-10T05:33:43;69.20;;;30.10;;
21352;SDS011;10834;52.268;6.770;2023-05-10T05:36:29;68.80;;;28.83;;
21352;SDS011;10834;52.268;6.770;2023-05-10T05:39:16;72.70;;;30.67;;
21352;SDS011;10834;52.268;6.770;2023-05-10T05:42:02;80.63;;;30.93;;
21352;SDS011;10834;52.268;6.770;2023-05-10T05:44:48;65.47;;;28.63;;
21352;SDS011;10834;52.268;6.770;2023-05-10T05:47:34;67.30;;;31.93;;
21352;SDS011;10834;52.268;6.770;2023-05-10T05:50:21;65.83;;;29.60;;
21352;SDS011;10834;52.268;6.770;2023-05-10T05:53:07;73.33;;;30.80;;
21352;SDS011;10834;52.268;6.770;2023-05-10T05:55:54;69.47;;;30.93;;
21352;SDS011;10834;52.268;6.770;2023-05-10T05:58:41;61.93;;;28.30;;
21352;SDS011;10834;52.268;6.770;2023-05-10T06:01:27;62.53;;;30.13;;
21352;SDS011;10834;52.268;6.770;2023-05-10T06:04:14;66.47;;;28.30;;
21352;SDS011;10834;52.268;6.770;2023-05-10T06:07:00;60.83;;;29.13;;
21352;SDS011;10834;52.268;6.770;2023-05-10T06:09:46;63.80;;;31.23;;
21352;SDS011;10834;52.268;6.770;2023-05-10T06:12:32;63.60;;;29.47;;
21352;SDS011;10834;52.268;6.770;2023-05-10T06:15:18;64.37;;;29.27;;
21352;SDS011;10834;52.268;6.770;2023-05-10T06:18:05;63.03;;;28.47;;
21352;SDS011;10834;52.268;6.770;2023-05-10T06:20:51;63.13;;;27.30;;
21352;SDS011;10834;52.268;6.770;2023-05-10T06:23:37;58.10;;;28.73;;
21352;SDS011;10834;52.268;6.770;2023-05-10T06:26:23;52.90;;;27.27;;
21352;SDS011;10834;52.268;6.770;2023-05-10T06:29:10;62.17;;;27.83;;
21352;SDS011;10834;52.268;6.770;2023-05-10T06:31:56;54.10;;;27.80;;
21352;SDS011;10834;52.268;6.770;2023-05-10T06:34:42;58.83;;;27.17;;
21352;SDS011;10834;52.268;6.770;2023-05-10T06:37:29;55.23;;;28.13;;
21352;SDS011;10834;52.268;6.770;2023-05-10T06:40:15;57.03;;;27.27;;
21352;SDS011;10834;52.268;6.770;2023-05-10T06:43:01;59.33;;;26.67;;
21352;SDS011;10834;52.268;6.770;2023-05-10T06:45:47;51.83;;;25.93;;
21352;SDS011;10834;52.268;6.770;2023-05-10T06:48:34;56.93;;;26.77;;
21352;SDS011;10834;52.268;6.770;2023-05-10T06:51:20;52.60;;;26.23;;
21352;SDS011;10834;52.268;6.770;2023-05-10T06:54:06;58.97;;;27.53;;
21352;SDS011;10834;52.268;6.770;2023-05-10T06:56:52;55.23;;;27.00;;
21352;SDS011;10834;52.268;6.770;2023-05-10T06:59:39;57.50;;;26.40;;
21352;SDS011;10834;52.268;6.770;2023-05-10T07:02:25;61.63;;;29.13;;
21352;SDS011;10834;52.268;6.770;2023-05-10T07:05:11;60.87;;;27.47;;
21352;SDS011;10834;52.268;6.770;2023-05-10T07:07:57;56.60;;;28.40;;
21352;SDS011;10834;52.268;6.770;2023-05-10T07:10:44;56.53;;;27.03;;
21352;SDS011;10834;52.268;6.770;2023-05-10T07:13:30;54.67;;;25.60;;
21352;SDS011;10834;52.268;6.770;2023-05-10T07:16:17;63.20;;;28.67;;
21352;SDS011;10834;52.268;6.770;2023-05-10T07:19:03;51.13;;;26.13;;
21352;SDS011;10834;52.268;6.770;2023-05-10T07:21:50;52.60;;;27.03;;
21352;SDS011;10834;52.268;6.770;2023-05-10T07:24:36;53.23;;;27.00;;
21352;SDS011;10834;52.268;6.770;2023-05-10T07:27:23;54.50;;;27.87;;
21352;SDS011;10834;52.268;6.770;2023-05-10T07:30:09;51.97;;;27.77;;
21352;SDS011;10834;52.268;6.770;2023-05-10T07:32:55;51.07;;;27.50;;
21352;SDS011;10834;52.268;6.770;2023-05-10T07:35:41;45.40;;;26.23;;
21352;SDS011;10834;52.268;6.770;2023-05-10T07:38:28;48.73;;;25.80;;
21352;SDS011;10834;52.268;6.770;2023-05-10T07:41:14;44.03;;;23.80;;
21352;SDS011;10834;52.268;6.770;2023-05-10T07:44:00;45.97;;;24.50;;
21352;SDS011;10834;52.268;6.770;2023-05-10T07:46:46;45.20;;;25.37;;
21352;SDS011;10834;52.268;6.770;2023-05-10T07:49:33;46.77;;;23.90;;
21352;SDS011;10834;52.268;6.770;2023-05-10T07:52:19;47.30;;;23.57;;
21352;SDS011;10834;52.268;6.770;2023-05-10T07:55:06;48.03;;;22.57;;
21352;SDS011;10834;52.268;6.770;2023-05-10T07:57:52;45.60;;;23.53;;
21352;SDS011;10834;52.268;6.770;2023-05-10T08:00:38;44.77;;;22.83;;
21352;SDS011;10834;52.268;6.770;2023-05-10T08:03:25;42.83;;;21.33;;
21352;SDS011;10834;52.268;6.770;2023-05-10T08:06:11;45.33;;;21.63;;
21352;SDS011;10834;52.268;6.770;2023-05-10T08:08:57;46.57;;;23.00;;
21352;SDS011;10834;52.268;6.770;2023-05-10T08:11:43;44.23;;;22.07;;
21352;SDS011;10834;52.268;6.770;2023-05-10T08:14:29;45.87;;;21.67;;
21352;SDS011;10834;52.268;6.770;2023-05-10T08:17:15;47.43;;;23.57;;
21352;SDS011;10834;52.268;6.770;2023-05-10T08:20:01;46.23;;;21.73;;
21352;SDS011;10834;52.268;6.770;2023-05-10T08:22:47;42.63;;;22.27;;
21352;SDS011;10834;52.268;6.770;2023-05-10T08:25:33;51.73;;;23.13;;
21352;SDS011;10834;52.268;6.770;2023-05-10T08:28:19;45.37;;;21.43;;
21352;SDS011;10834;52.268;6.770;2023-05-10T08:31:05;50.23;;;23.77;;
21352;SDS011;10834;52.268;6.770;2023-05-10T08:33:51;52.20;;;23.10;;
21352;SDS011;10834;52.268;6.770;2023-05-10T08:36:38;50.90;;;22.30;;
21352;SDS011;10834;52.268;6.770;2023-05-10T08:39:24;51.13;;;23.83;;
21352;SDS011;10834;52.268;6.770;2023-05-10T08:42:10;50.03;;;22.77;;
21352;SDS011;10834;52.268;6.770;2023-05-10T08:44:57;52.33;;;23.93;;
21352;SDS011;10834;52.268;6.770;2023-05-10T08:47:45;54.07;;;23.20;;
21352;SDS011;10834;52.268;6.770;2023-05-10T08:50:31;48.43;;;21.90;;
21352;SDS011;10834;52.268;6.770;2023-05-10T08:53:19;50.33;;;23.00;;
21352;SDS011;10834;52.268;6.770;2023-05-10T08:56:06;47.67;;;22.20;;
21352;SDS011;10834;52.268;6.770;2023-05-10T08:58:52;47.60;;;21.17;;
21352;SDS011;10834;52.268;6.770;2023-05-10T09:01:39;53.60;;;22.57;;
21352;SDS011;10834;52.268;6.770;2023-05-10T09:04:27;53.23;;;23.43;;
21352;SDS011;10834;52.268;6.770;2023-05-10T09:07:14;49.73;;;22.77;;
21352;SDS011;10834;52.268;6.770;2023-05-10T09:10:02;50.23;;;21.13;;
21352;SDS011;10834;52.268;6.770;2023-05-10T09:12:50;53.23;;;19.97;;
21352;SDS011;10834;52.268;6.770;2023-05-10T09:15:36;46.87;;;22.60;;
21352;SDS011;10834;52.268;6.770;2023-05-10T09:18:23;44.27;;;20.80;;
21352;SDS011;10834;52.268;6.770;2023-05-10T09:21:09;43.53;;;20.73;;
21352;SDS011;10834;52.268;6.770;2023-05-10T09:23:56;44.57;;;21.43;;
21352;SDS011;10834;52.268;6.770;2023-05-10T09:26:45;48.23;;;21.53;;
21352;SDS011;10834;52.268;6.770;2023-05-10T09:29:41;49.47;;;22.57;;
21352;SDS011;10834;52.268;6.770;2023-05-10T09:35:33;46.43;;;22.20;;
21352;SDS011;10834;52.268;6.770;2023-05-10T09:38:19;41.03;;;18.50;;
21352;SDS011;10834;52.268;6.770;2023-05-10T09:41:14;33.33;;;16.07;;
21352;SDS011;10834;52.268;6.770;2023-05-10T09:44:02;23.67;;;13.10;;
21352;SDS011;10834;52.268;6.770;2023-05-10T09:46:49;22.47;;;11.27;;
21352;SDS011;10834;52.268;6.770;2023-05-10T09:49:36;22.83;;;11.57;;
21352;SDS011;10834;52.268;6.770;2023-05-10T09:52:22;18.23;;;10.33;;
21352;SDS011;10834;52.268;6.770;2023-05-10T09:55:08;18.43;;;10.80;;
21352;SDS011;10834;52.268;6.770;2023-05-10T09:57:58;20.50;;;10.77;;
21352;SDS011;10834;52.268;6.770;2023-05-10T10:00:46;19.33;;;11.20;;
21352;SDS011;10834;52.268;6.770;2023-05-10T10:03:40;23.20;;;12.17;;
21352;SDS011;10834;52.268;6.770;2023-05-10T10:06:28;16.97;;;11.00;;
21352;SDS011;10834;52.268;6.770;2023-05-10T10:09:13;18.47;;;11.70;;
21352;SDS011;10834;52.268;6.770;2023-05-10T10:12:00;17.03;;;10.70;;
21352;SDS011;10834;52.268;6.770;2023-05-10T10:14:47;17.43;;;10.47;;
21352;SDS011;10834;52.268;6.770;2023-05-10T10:17:36;20.30;;;11.07;;
21352;SDS011;10834;52.268;6.770;2023-05-10T10:20:23;15.77;;;10.13;;
21352;SDS011;10834;52.268;6.770;2023-05-10T10:23:10;17.77;;;9.27;;
21352;SDS011;10834;52.268;6.770;2023-05-10T10:25:56;16.20;;;9.47;;
21352;SDS011;10834;52.268;6.770;2023-05-10T10:33:06;14.97;;;9.57;;
21352;SDS011;10834;52.268;6.770;2023-05-10T10:35:28;17.07;;;10.20;;
21352;SDS011;10834;52.268;6.770;2023-05-10T10:38:15;18.83;;;9.57;;
21352;SDS011;10834;52.268;6.770;2023-05-10T10:41:03;14.87;;;9.40;;
21352;SDS011;10834;52.268;6.770;2023-05-10T10:50:04;12.47;;;10.73;;
21352;SDS011;10834;52.268;6.770;2023-05-10T10:52:53;19.90;;;11.50;;
21352;SDS011;10834;52.268;6.770;2023-05-10T10:55:46;12.07;;;9.17;;
21352;SDS011;10834;52.268;6.770;2023-05-10T10:58:33;14.37;;;9.57;;
21352;SDS011;10834;52.268;6.770;2023-05-10T11:01:20;15.02;;;9.18;;
21352;SDS011;10834;52.268;6.770;2023-05-10T11:06:53;9.93;;;6.57;;
21352;SDS011;10834;52.268;6.770;2023-05-10T11:10:05;14.38;;;7.32;;
21352;SDS011;10834;52.268;6.770;2023-05-10T11:13:02;11.00;;;7.13;;
21352;SDS011;10834;52.268;6.770;2023-05-10T11:15:49;10.07;;;6.82;;
21352;SDS011;10834;52.268;6.770;2023-05-10T11:18:36;9.32;;;6.60;;
21352;SDS011;10834;52.268;6.770;2023-05-10T11:21:23;13.00;;;6.78;;
21352;SDS011;10834;52.268;6.770;2023-05-10T11:24:13;8.43;;;6.80;;
21352;SDS011;10834;52.268;6.770;2023-05-10T11:27:01;8.93;;;6.50;;
21352;SDS011;10834;52.268;6.770;2023-05-10T11:29:50;10.93;;;7.03;;
21352;SDS011;10834;52.268;6.770;2023-05-10T11:32:37;13.38;;;6.70;;
21352;SDS011;10834;52.268;6.770;2023-05-10T11:35:27;11.10;;;7.05;;
21352;SDS011;10834;52.268;6.770;2023-05-10T11:38:13;11.45;;;7.35;;
21352;SDS011;10834;52.268;6.770;2023-05-10T11:40:59;13.60;;;7.05;;
21352;SDS011;10834;52.268;6.770;2023-05-10T11:43:46;9.60;;;7.60;;
21352;SDS011;10834;52.268;6.770;2023-05-10T11:46:34;10.57;;;7.63;;
21352;SDS011;10834;52.268;6.770;2023-05-10T11:49:22;16.77;;;8.95;;
21352;SDS011;10834;52.268;6.770;2023-05-10T11:52:10;14.05;;;8.18;;
21352;SDS011;10834;52.268;6.770;2023-05-10T11:54:57;9.85;;;7.85;;
21352;SDS011;10834;52.268;6.770;2023-05-10T11:57:43;13.35;;;9.02;;
21352;SDS011;10834;52.268;6.770;2023-05-10T12:00:31;14.25;;;9.32;;
21352;SDS011;10834;52.268;6.770;2023-05-10T12:03:17;12.90;;;8.65;;
21352;SDS011;10834;52.268;6.770;2023-05-10T12:06:04;13.00;;;8.55;;
21352;SDS011;10834;52.268;6.770;2023-05-10T12:08:50;12.07;;;8.82;;
21352;SDS011;10834;52.268;6.770;2023-05-10T12:11:40;14.27;;;9.90;;
21352;SDS011;10834;52.268;6.770;2023-05-10T12:14:26;13.07;;;9.60;;
21352;SDS011;10834;52.268;6.770;2023-05-10T12:17:13;15.23;;;9.18;;
21352;SDS011;10834;52.268;6.770;2023-05-10T12:20:12;13.20;;;8.63;;
21352;SDS011;10834;52.268;6.770;2023-05-10T12:23:00;17.30;;;9.15;;
21352;SDS011;10834;52.268;6.770;2023-05-10T12:25:48;12.80;;;8.60;;
21352;SDS011;10834;52.268;6.770;2023-05-10T12:28:34;12.15;;;8.45;;
21352;SDS011;10834;52.268;6.770;2023-05-10T12:31:21;15.20;;;8.52;;
21352;SDS011;10834;52.268;6.770;2023-05-10T12:34:07;11.70;;;8.95;;
21352;SDS011;10834;52.268;6.770;2023-05-10T12:36:53;13.30;;;8.48;;
21352;SDS011;10834;52.268;6.770;2023-05-10T12:39:40;10.55;;;7.82;;
21352;SDS011;10834;52.268;6.770;2023-05-10T12:42:27;9.40;;;7.35;;
21352;SDS011;10834;52.268;6.770;2023-05-10T12:45:14;14.98;;;9.25;;
21352;SDS011;10834;52.268;6.770;2023-05-10T12:48:00;13.52;;;8.50;;
21352;SDS011;10834;52.268;6.770;2023-05-10T12:50:46;11.85;;;8.05;;
21352;SDS011;10834;52.268;6.770;2023-05-10T12:53:33;12.00;;;8.30;;
21352;SDS011;10834;52.268;6.770;2023-05-10T12:56:19;11.70;;;9.35;;
21352;SDS011;10834;52.268;6.770;2023-05-10T12:59:05;12.93;;;8.18;;
21352;SDS011;10834;52.268;6.770;2023-05-10T13:01:51;10.57;;;7.72;;
21352;SDS011;10834;52.268;6.770;2023-05-10T13:04:37;13.57;;;8.07;;
21352;SDS011;10834;52.268;6.770;2023-05-10T13:07:25;10.82;;;7.57;;
21352;SDS011;10834;52.268;6.770;2023-05-10T13:10:11;10.73;;;7.75;;
21352;SDS011;10834;52.268;6.770;2023-05-10T13:13:00;14.23;;;8.45;;
21352;SDS011;10834;52.268;6.770;2023-05-10T13:15:46;9.77;;;7.32;;
21352;SDS011;10834;52.268;6.770;2023-05-10T13:18:32;9.13;;;6.05;;
21352;SDS011;10834;52.268;6.770;2023-05-10T13:21:18;10.23;;;7.65;;
21352;SDS011;10834;52.268;6.770;2023-05-10T13:24:04;9.88;;;6.95;;
21352;SDS011;10834;52.268;6.770;2023-05-10T13:26:51;9.80;;;6.78;;
21352;SDS011;10834;52.268;6.770;2023-05-10T13:29:37;10.20;;;7.32;;
21352;SDS011;10834;52.268;6.770;2023-05-10T13:32:23;9.70;;;6.45;;
21352;SDS011;10834;52.268;6.770;2023-05-10T13:35:09;10.27;;;6.93;;
21352;SDS011;10834;52.268;6.770;2023-05-10T13:37:55;11.45;;;6.55;;
21352;SDS011;10834;52.268;6.770;2023-05-10T13:40:43;7.15;;;5.07;;
21352;SDS011;10834;52.268;6.770;2023-05-10T13:43:29;8.25;;;5.75;;
21352;SDS011;10834;52.268;6.770;2023-05-10T13:46:15;7.60;;;5.80;;
21352;SDS011;10834;52.268;6.770;2023-05-10T13:49:01;9.35;;;6.00;;
21352;SDS011;10834;52.268;6.770;2023-05-10T13:51:47;7.07;;;5.93;;
21352;SDS011;10834;52.268;6.770;2023-05-10T13:54:33;9.65;;;6.15;;
21352;SDS011;10834;52.268;6.770;2023-05-10T13:57:20;7.00;;;5.53;;
21352;SDS011;10834;52.268;6.770;2023-05-10T14:00:06;8.30;;;6.05;;
21352;SDS011;10834;52.268;6.770;2023-05-10T14:02:53;10.63;;;6.95;;
21352;SDS011;10834;52.268;6.770;2023-05-10T14:05:39;10.25;;;6.72;;
21352;SDS011;10834;52.268;6.770;2023-05-10T14:08:25;8.95;;;6.07;;
21352;SDS011;10834;52.268;6.770;2023-05-10T14:11:12;7.25;;;5.80;;
21352;SDS011;10834;52.268;6.770;2023-05-10T14:13:59;7.13;;;4.88;;
21352;SDS011;10834;52.268;6.770;2023-05-10T14:16:45;6.90;;;5.32;;
21352;SDS011;10834;52.268;6.770;2023-05-10T14:19:31;5.93;;;4.78;;
21352;SDS011;10834;52.268;6.770;2023-05-10T14:22:19;5.25;;;4.72;;
21352;SDS011;10834;52.268;6.770;2023-05-10T14:25:05;7.13;;;4.72;;
21352;SDS011;10834;52.268;6.770;2023-05-10T14:27:52;6.97;;;4.47;;
21352;SDS011;10834;52.268;6.770;2023-05-10T14:30:39;5.57;;;4.25;;
21352;SDS011;10834;52.268;6.770;2023-05-10T14:33:25;6.38;;;4.32;;
21352;SDS011;10834;52.268;6.770;2023-05-10T14:36:12;5.55;;;4.28;;
21352;SDS011;10834;52.268;6.770;2023-05-10T14:38:58;6.90;;;4.75;;
21352;SDS011;10834;52.268;6.770;2023-05-10T14:41:44;7.78;;;4.53;;
21352;SDS011;10834;52.268;6.770;2023-05-10T14:44:31;8.18;;;5.03;;
21352;SDS011;10834;52.268;6.770;2023-05-10T14:47:17;5.65;;;4.65;;
21352;SDS011;10834;52.268;6.770;2023-05-10T14:50:03;7.72;;;4.53;;
21352;SDS011;10834;52.268;6.770;2023-05-10T14:52:49;5.72;;;4.78;;
21352;SDS011;10834;52.268;6.770;2023-05-10T14:55:35;6.28;;;5.03;;
21352;SDS011;10834;52.268;6.770;2023-05-10T14:58:22;6.75;;;5.25;;
21352;SDS011;10834;52.268;6.770;2023-05-10T15:01:08;6.57;;;5.30;;
21352;SDS011;10834;52.268;6.770;2023-05-10T15:03:54;7.07;;;5.25;;
21352;SDS011;10834;52.268;6.770;2023-05-10T15:06:40;9.38;;;6.03;;
21352;SDS011;10834;52.268;6.770;2023-05-10T15:09:27;9.00;;;5.60;;
21352;SDS011;10834;52.268;6.770;2023-05-10T15:12:13;8.77;;;6.03;;
21352;SDS011;10834;52.268;6.770;2023-05-10T15:14:59;8.82;;;6.13;;
21352;SDS011;10834;52.268;6.770;2023-05-10T15:17:45;9.18;;;6.55;;
21352;SDS011;10834;52.268;6.770;2023-05-10T15:20:31;8.50;;;6.13;;
21352;SDS011;10834;52.268;6.770;2023-05-10T15:23:17;8.70;;;5.82;;
21352;SDS011;10834;52.268;6.770;2023-05-10T15:26:03;6.78;;;5.22;;
21352;SDS011;10834;52.268;6.770;2023-05-10T15:28:50;8.25;;;5.40;;
21352;SDS011;10834;52.268;6.770;2023-05-10T15:31:36;7.65;;;6.13;;
21352;SDS011;10834;52.268;6.770;2023-05-10T15:34:22;10.48;;;5.85;;
21352;SDS011;10834;52.268;6.770;2023-05-10T15:37:08;7.38;;;6.05;;
21352;SDS011;10834;52.268;6.770;2023-05-10T15:39:55;10.95;;;6.40;;
21352;SDS011;10834;52.268;6.770;2023-05-10T15:42:48;7.03;;;6.22;;
21352;SDS011;10834;52.268;6.770;2023-05-10T15:45:34;6.78;;;5.75;;
21352;SDS011;10834;52.268;6.770;2023-05-10T15:48:20;10.02;;;6.90;;
21352;SDS011;10834;52.268;6.770;2023-05-10T15:51:06;7.55;;;6.13;;
21352;SDS011;10834;52.268;6.770;2023-05-10T15:53:52;9.50;;;5.97;;
21352;SDS011;10834;52.268;6.770;2023-05-10T15:56:38;10.40;;;6.15;;
21352;SDS011;10834;52.268;6.770;2023-05-10T15:59:24;9.10;;;6.35;;
21352;SDS011;10834;52.268;6.770;2023-05-10T16:02:11;9.90;;;5.80;;
21352;SDS011;10834;52.268;6.770;2023-05-10T16:04:57;9.13;;;5.90;;
21352;SDS011;10834;52.268;6.770;2023-05-10T16:07:43;6.78;;;5.93;;
21352;SDS011;10834;52.268;6.770;2023-05-10T16:10:32;6.88;;;6.00;;
21352;SDS011;10834;52.268;6.770;2023-05-10T16:13:18;9.80;;;5.53;;
21352;SDS011;10834;52.268;6.770;2023-05-10T16:16:04;8.38;;;5.78;;
21352;SDS011;10834;52.268;6.770;2023-05-10T16:18:53;9.63;;;5.45;;
21352;SDS011;10834;52.268;6.770;2023-05-10T16:21:39;8.47;;;5.30;;
21352;SDS011;10834;52.268;6.770;2023-05-10T16:24:25;9.38;;;5.68;;
21352;SDS011;10834;52.268;6.770;2023-05-10T16:27:11;9.60;;;7.25;;
21352;SDS011;10834;52.268;6.770;2023-05-10T16:29:57;10.43;;;6.30;;
21352;SDS011;10834;52.268;6.770;2023-05-10T16:32:44;8.60;;;6.00;;
21352;SDS011;10834;52.268;6.770;2023-05-10T16:35:30;9.88;;;6.13;;
21352;SDS011;10834;52.268;6.770;2023-05-10T16:38:16;7.53;;;5.67;;
21352;SDS011;10834;52.268;6.770;2023-05-10T16:41:02;9.70;;;5.80;;
21352;SDS011;10834;52.268;6.770;2023-05-10T16:43:48;8.27;;;6.00;;
21352;SDS011;10834;52.268;6.770;2023-05-10T16:46:34;9.60;;;6.33;;
21352;SDS011;10834;52.268;6.770;2023-05-10T16:49:21;11.40;;;6.13;;
21352;SDS011;10834;52.268;6.770;2023-05-10T16:52:07;8.77;;;5.83;;
21352;SDS011;10834;52.268;6.770;2023-05-10T16:54:53;10.27;;;6.80;;
21352;SDS011;10834;52.268;6.770;2023-05-10T16:57:40;8.70;;;6.20;;
21352;SDS011;10834;52.268;6.770;2023-05-10T17:00:26;7.37;;;5.37;;
21352;SDS011;10834;52.268;6.770;2023-05-10T17:03:12;7.47;;;5.47;;
21352;SDS011;10834;52.268;6.770;2023-05-10T17:05:58;10.03;;;5.60;;
21352;SDS011;10834;52.268;6.770;2023-05-10T17:08:44;9.47;;;6.20;;